createdAt,value
2022-11-10T00:02:20.567Z,11.62
2022-11-10T00:05:06.147Z,11.57
2022-11-10T00:07:51.624Z,11.56
2022-11-10T00:10:57.133Z,11.54
2022-11-10T00:14:01.231Z,11.53
2022-11-10T00:17:01.902Z,11.58
2022-11-10T00:19:47.625Z,11.61
2022-11-10T00:22:37.869Z,11.61
2022-11-10T00:25:24.473Z,11.59
2022-11-10T00:28:10.791Z,11.59
2022-11-10T00:30:56.535Z,11.57
2022-11-10T00:33:43.920Z,11.60
2022-11-10T00:36:29.904Z,11.69
2022-11-10T00:39:15.663Z,11.77
2022-11-10T00:42:01.008Z,11.73
2022-11-10T00:44:46.845Z,11.70
2022-11-10T00:47:32.589Z,11.69
2022-11-10T00:50:18.116Z,11.66
2022-11-10T00:53:04.062Z,11.67
2022-11-10T00:55:49.761Z,11.64
2022-11-10T00:58:35.274Z,11.62
2022-11-10T01:01:22.381Z,11.63
2022-11-10T01:04:08.093Z,11.62
2022-11-10T01:06:53.244Z,11.54
2022-11-10T01:09:38.763Z,11.50
2022-11-10T01:12:24.413Z,11.47
2022-11-10T01:15:10.193Z,11.53
2022-11-10T01:17:56.608Z,11.58
2022-11-10T01:20:42.155Z,11.52
2022-11-10T01:23:27.777Z,11.51
2022-11-10T01:26:13.822Z,11.50
2022-11-10T01:28:58.964Z,11.49
2022-11-10T01:31:44.413Z,11.52
2022-11-10T01:34:29.802Z,11.51
2022-11-10T01:37:15.129Z,11.51
2022-11-10T01:40:00.730Z,11.47
2022-11-10T01:42:55.520Z,11.38
2022-11-10T01:45:45.378Z,11.37
2022-11-10T01:48:59.155Z,11.31
2022-11-10T01:51:54.926Z,11.22
2022-11-10T01:54:50.044Z,11.23
2022-11-10T01:57:37.154Z,11.18
2022-11-10T02:00:23.505Z,11.17
2022-11-10T02:03:41.690Z,11.21
2022-11-10T02:06:31.585Z,11.22
2022-11-10T02:09:17.758Z,11.11
2022-11-10T02:12:03.220Z,11.10
2022-11-10T02:14:48.974Z,11.10
2022-11-10T02:17:34.674Z,11.15
2022-11-10T02:20:21.579Z,11.14
2022-11-10T02:23:12.935Z,11.13
2022-11-10T02:25:58.800Z,11.08
2022-11-10T02:28:43.843Z,11.02
2022-11-10T02:31:29.325Z,10.99
2022-11-10T02:34:15.032Z,11.00
2022-11-10T02:37:00.512Z,11.01
2022-11-10T02:39:45.789Z,11.03
2022-11-10T02:42:31.119Z,11.07
2022-11-10T02:45:16.556Z,11.01
2022-11-10T02:48:01.938Z,11.04
2022-11-10T02:50:47.536Z,11.06
2022-11-10T02:53:32.894Z,11.04
2022-11-10T02:56:18.325Z,11.06
2022-11-10T02:59:04.924Z,11.06
2022-11-10T03:01:49.998Z,11.03
2022-11-10T03:04:35.750Z,11.01
2022-11-10T03:07:21.187Z,11.00
2022-11-10T03:10:07.223Z,11.02
2022-11-10T03:13:00.245Z,10.97
2022-11-10T03:15:47.997Z,10.91
2022-11-10T03:18:33.371Z,10.90
2022-11-10T03:21:18.719Z,10.90
2022-11-10T03:24:04.617Z,10.82
2022-11-10T03:26:50.124Z,10.70
2022-11-10T03:29:35.556Z,10.67
2022-11-10T03:32:20.822Z,10.66
2022-11-10T03:35:06.548Z,10.60
2022-11-10T03:37:51.952Z,10.56
2022-11-10T03:40:57.000Z,10.54
2022-11-10T03:43:42.292Z,10.47
2022-11-10T03:46:27.658Z,10.42
2022-11-10T03:49:12.897Z,10.38
2022-11-10T03:51:58.249Z,10.32
2022-11-10T03:54:43.658Z,10.30
2022-11-10T03:57:29.158Z,10.28
2022-11-10T04:00:14.999Z,10.28
2022-11-10T04:03:00.395Z,10.24
2022-11-10T04:06:04.084Z,10.14
2022-11-10T04:09:01.235Z,10.10
2022-11-10T04:12:05.243Z,10.06
2022-11-10T04:15:09.704Z,10.14
2022-11-10T04:17:55.362Z,10.02
2022-11-10T04:20:40.962Z,9.96
2022-11-10T04:23:34.961Z,9.92
2022-11-10T04:26:29.519Z,9.90
2022-11-10T04:29:19.489Z,9.89
2022-11-10T04:32:04.807Z,9.85
2022-11-10T04:34:50.505Z,9.89
2022-11-10T04:37:35.788Z,9.92
2022-11-10T04:40:21.609Z,9.91
2022-11-10T04:43:06.919Z,9.91
2022-11-10T04:45:52.647Z,9.79
2022-11-10T04:48:38.180Z,9.73
2022-11-10T04:51:28.700Z,9.71
2022-11-10T04:54:14.003Z,9.64
2022-11-10T04:56:59.287Z,9.59
2022-11-10T04:59:44.726Z,9.59
2022-11-10T05:02:30.131Z,9.56
2022-11-10T05:05:15.581Z,9.61
2022-11-10T05:08:01.724Z,9.58
2022-11-10T05:10:47.207Z,9.55
2022-11-10T05:13:32.956Z,9.54
2022-11-10T05:16:18.097Z,9.54
2022-11-10T05:19:04.122Z,9.53
2022-11-10T05:21:49.606Z,9.49
2022-11-10T05:24:34.747Z,9.48
2022-11-10T05:27:20.145Z,9.46
2022-11-10T05:30:06.226Z,9.47
2022-11-10T05:32:51.460Z,9.49
2022-11-10T05:35:37.177Z,9.51
2022-11-10T05:38:22.537Z,9.53
2022-11-10T05:41:07.984Z,9.51
2022-11-10T05:43:53.297Z,9.51
2022-11-10T05:46:38.686Z,9.49
2022-11-10T05:49:24.151Z,9.45
2022-11-10T05:52:09.443Z,9.39
2022-11-10T05:54:55.566Z,9.43
2022-11-10T05:57:45.421Z,9.45
2022-11-10T06:00:31.848Z,9.46
2022-11-10T06:03:20.235Z,9.44
2022-11-10T06:06:05.855Z,9.38
2022-11-10T06:08:52.120Z,9.36
2022-11-10T06:11:37.491Z,9.35
2022-11-10T06:14:22.574Z,9.33
2022-11-10T06:17:07.902Z,9.33
2022-11-10T06:19:53.606Z,9.32
2022-11-10T06:22:39.174Z,9.30
2022-11-10T06:25:24.547Z,9.28
2022-11-10T06:28:10.922Z,9.27
2022-11-10T06:30:59.116Z,9.33
2022-11-10T06:33:44.708Z,9.34
2022-11-10T06:36:30.070Z,9.36
2022-11-10T06:39:15.430Z,9.38
2022-11-10T06:42:01.051Z,9.43
2022-11-10T06:44:46.275Z,9.45
2022-11-10T06:47:32.164Z,9.52
2022-11-10T06:50:17.645Z,9.59
2022-11-10T06:53:03.389Z,9.59
2022-11-10T06:55:48.802Z,9.60
2022-11-10T06:58:34.147Z,9.60
2022-11-10T07:01:22.615Z,9.67
2022-11-10T07:04:23.567Z,9.71
2022-11-10T07:07:09.150Z,9.72
2022-11-10T07:09:54.644Z,9.71
2022-11-10T07:12:40.108Z,9.67
2022-11-10T07:15:25.454Z,9.66
2022-11-10T07:18:11.078Z,9.69
2022-11-10T07:20:56.913Z,9.72
2022-11-10T07:23:42.351Z,9.74
2022-11-10T07:26:28.328Z,9.72
2022-11-10T07:29:13.413Z,9.75
2022-11-10T07:31:58.786Z,9.81
2022-11-10T07:34:44.063Z,9.88
2022-11-10T07:37:29.516Z,9.88
2022-11-10T07:40:14.797Z,9.94
2022-11-10T07:43:01.053Z,9.98
2022-11-10T07:45:46.659Z,9.92
2022-11-10T07:48:31.914Z,9.87
2022-11-10T07:51:17.946Z,9.88
2022-11-10T07:54:03.344Z,9.87
2022-11-10T07:56:49.537Z,9.87
2022-11-10T07:59:35.085Z,9.82
2022-11-10T08:02:20.400Z,9.82
2022-11-10T08:05:06.334Z,9.84
2022-11-10T08:07:53.119Z,9.88
2022-11-10T08:10:40.147Z,9.89
2022-11-10T08:13:25.827Z,9.92
2022-11-10T08:16:11.267Z,9.94
2022-11-10T08:18:56.649Z,9.98
2022-11-10T08:21:41.991Z,9.99
2022-11-10T08:24:27.371Z,10.03
2022-11-10T08:27:12.762Z,10.06
2022-11-10T08:29:58.116Z,10.12
2022-11-10T08:32:43.419Z,10.15
2022-11-10T08:35:31.110Z,10.17
2022-11-10T08:38:22.336Z,10.21
2022-11-10T08:41:08.520Z,10.23
2022-11-10T08:43:53.830Z,10.29
2022-11-10T08:46:42.377Z,10.38
2022-11-10T08:49:27.332Z,10.37
2022-11-10T08:52:14.198Z,10.36
2022-11-10T08:54:59.571Z,10.38
2022-11-10T08:57:44.935Z,10.40
2022-11-10T09:00:32.351Z,10.45
2022-11-10T09:03:22.886Z,10.51
2022-11-10T09:06:08.615Z,10.51
2022-11-10T09:08:54.278Z,10.55
2022-11-10T09:11:39.620Z,10.65
2022-11-10T09:14:24.919Z,10.79
2022-11-10T09:17:10.146Z,10.86
2022-11-10T09:19:55.730Z,10.88
2022-11-10T09:22:41.381Z,10.94
2022-11-10T09:25:26.885Z,10.96
2022-11-10T09:28:14.045Z,10.96
2022-11-10T09:30:59.932Z,10.89
2022-11-10T09:33:45.466Z,10.81
2022-11-10T09:36:30.907Z,10.74
2022-11-10T09:39:16.318Z,10.69
2022-11-10T09:42:01.850Z,10.75
2022-11-10T09:44:58.158Z,10.81
2022-11-10T09:48:09.081Z,10.87
2022-11-10T09:50:58.369Z,10.81
2022-11-10T09:53:50.472Z,10.83
2022-11-10T09:56:38.063Z,10.85
2022-11-10T09:59:35.001Z,10.89
2022-11-10T10:02:38.226Z,10.83
2022-11-10T10:05:29.573Z,10.84
2022-11-10T10:08:24.542Z,10.89
2022-11-10T10:11:38.625Z,10.99
2022-11-10T10:14:38.799Z,11.10
2022-11-10T10:17:40.805Z,11.12
2022-11-10T10:20:42.360Z,11.18
2022-11-10T10:24:07.192Z,11.30
2022-11-10T10:26:50.720Z,11.46
2022-11-10T10:29:49.321Z,11.53
2022-11-10T10:32:35.208Z,11.61
2022-11-10T10:35:20.357Z,11.66
2022-11-10T10:38:22.309Z,11.68
2022-11-10T10:41:20.920Z,11.66
2022-11-10T10:44:17.704Z,11.61
2022-11-10T10:47:04.499Z,11.60
2022-11-10T10:49:49.753Z,11.64
2022-11-10T10:52:35.257Z,11.70
2022-11-10T10:55:20.640Z,11.62
2022-11-10T10:58:37.199Z,11.68
2022-11-10T11:01:32.886Z,11.72
2022-11-10T11:04:36.966Z,11.78
2022-11-10T11:07:25.102Z,11.81
2022-11-10T11:10:22.621Z,11.83
2022-11-10T11:13:20.928Z,11.89
2022-11-10T11:16:09.206Z,11.91
2022-11-10T11:18:54.286Z,11.94
2022-11-10T11:22:05.503Z,11.97
2022-11-10T11:25:06.288Z,12.03
2022-11-10T11:28:10.410Z,12.05
2022-11-10T11:30:58.609Z,12.16
2022-11-10T11:34:01.386Z,12.19
2022-11-10T11:37:23.991Z,12.21
2022-11-10T11:40:23.659Z,12.28
2022-11-10T11:43:27.987Z,12.28
2022-11-10T11:46:56.554Z,12.21
2022-11-10T11:50:03.650Z,12.15
2022-11-10T11:53:13.066Z,12.18
2022-11-10T11:56:06.657Z,12.10
2022-11-10T11:59:15.664Z,12.07
2022-11-10T12:02:31.680Z,12.02
2022-11-10T12:05:28.930Z,12.01
2022-11-10T12:08:31.104Z,12.02
2022-11-10T12:11:31.751Z,11.99
2022-11-10T12:14:31.035Z,12.02
2022-11-10T12:17:36.196Z,12.10
2022-11-10T12:20:59.187Z,12.22
2022-11-10T12:24:15.639Z,12.35
2022-11-10T12:27:20.377Z,12.45
2022-11-10T12:30:11.303Z,12.53
2022-11-10T12:33:00.382Z,12.55
2022-11-10T12:35:46.843Z,12.57
2022-11-10T12:38:48.111Z,12.62
2022-11-10T12:41:42.071Z,12.63
2022-11-10T12:44:43.626Z,12.51
2022-11-10T12:47:38.351Z,12.45
2022-11-10T12:50:32.513Z,12.37
2022-11-10T12:53:29.800Z,12.34
2022-11-10T12:56:23.672Z,12.32
2022-11-10T12:59:21.880Z,12.24
2022-11-10T13:02:25.188Z,12.19
2022-11-10T13:05:32.124Z,12.19
2022-11-10T13:08:44.097Z,12.09
2022-11-10T13:11:36.863Z,12.04
2022-11-10T13:14:28.998Z,11.98
2022-11-10T13:17:26.232Z,12.01
2022-11-10T13:20:40.243Z,12.25
2022-11-10T13:23:43.821Z,12.36
2022-11-10T13:26:56.037Z,12.36
2022-11-10T13:29:47.783Z,12.24
2022-11-10T13:32:34.455Z,12.22
2022-11-10T13:35:29.142Z,12.28
2022-11-10T13:38:46.889Z,12.33
2022-11-10T13:41:34.739Z,12.39
2022-11-10T13:44:33.754Z,12.35
2022-11-10T13:47:19.367Z,12.33
2022-11-10T13:50:42.207Z,12.38
2022-11-10T13:53:34.506Z,12.35
2022-11-10T13:56:35.209Z,12.30
2022-11-10T13:59:30.734Z,12.31
2022-11-10T14:02:39.302Z,12.17
2022-11-10T14:05:30.934Z,12.04
2022-11-10T14:08:20.717Z,12.01
2022-11-10T14:11:14.156Z,12.02
2022-11-10T14:14:13.317Z,11.99
2022-11-10T14:16:59.642Z,11.98
2022-11-10T14:19:46.112Z,11.92
2022-11-10T14:22:44.656Z,11.89
2022-11-10T14:25:41.249Z,11.75
2022-11-10T14:28:34.957Z,11.62
2022-11-10T14:31:25.861Z,11.59
2022-11-10T14:34:17.038Z,11.53
2022-11-10T14:37:04.933Z,11.47
2022-11-10T14:40:00.055Z,11.51
2022-11-10T14:42:47.504Z,11.48
2022-11-10T14:45:33.764Z,11.45
2022-11-10T14:48:23.124Z,11.41
2022-11-10T14:51:15.208Z,11.32
2022-11-10T14:54:02.955Z,11.29
2022-11-10T14:56:49.369Z,11.33
2022-11-10T14:59:34.950Z,11.23
2022-11-10T15:02:20.948Z,11.18
2022-11-10T15:05:09.649Z,11.15
2022-11-10T15:07:57.278Z,11.11
2022-11-10T15:10:42.563Z,11.06
2022-11-10T15:13:28.132Z,10.94
2022-11-10T15:16:32.049Z,10.86
2022-11-10T15:19:23.097Z,10.81
2022-11-10T15:22:32.621Z,10.75
2022-11-10T15:25:21.729Z,10.73
2022-11-10T15:28:13.290Z,10.63
2022-11-10T15:31:20.783Z,10.61
2022-11-10T15:34:06.460Z,10.61
2022-11-10T15:37:30.451Z,10.50
2022-11-10T15:40:33.300Z,10.44
2022-11-10T15:43:26.469Z,10.43
2022-11-10T15:46:18.058Z,10.41
2022-11-10T15:49:04.536Z,10.39
2022-11-10T15:51:52.309Z,10.33
2022-11-10T15:54:37.809Z,10.28
2022-11-10T15:57:23.093Z,10.30
2022-11-10T16:00:12.272Z,10.27
2022-11-10T16:02:57.550Z,10.24
2022-11-10T16:05:42.755Z,10.20
2022-11-10T16:08:30.696Z,10.17
2022-11-10T16:11:19.670Z,10.21
2022-11-10T16:14:05.862Z,10.23
2022-11-10T16:16:51.065Z,10.28
2022-11-10T16:19:36.295Z,10.23
2022-11-10T16:22:21.581Z,10.13
2022-11-10T16:25:07.332Z,10.08
2022-11-10T16:27:53.083Z,10.06
2022-11-10T16:30:38.404Z,10.09
2022-11-10T16:33:24.746Z,10.02
2022-11-10T16:36:39.031Z,10.06
2022-11-10T16:39:25.500Z,9.95
2022-11-10T16:42:11.002Z,9.95
2022-11-10T16:44:56.169Z,9.92
2022-11-10T16:47:43.115Z,9.90
2022-11-10T16:50:34.006Z,9.88
2022-11-10T16:53:23.410Z,9.90
2022-11-10T16:56:14.739Z,9.91
2022-11-10T16:59:00.245Z,9.92
2022-11-10T17:01:47.593Z,9.92
2022-11-10T17:04:32.778Z,9.89
2022-11-10T17:07:24.482Z,9.91
2022-11-10T17:10:18.169Z,9.93
2022-11-10T17:13:03.484Z,9.90
2022-11-10T17:15:50.585Z,9.90
2022-11-10T17:18:36.371Z,9.89
2022-11-10T17:21:22.558Z,9.88
2022-11-10T17:24:12.638Z,9.85
2022-11-10T17:26:58.079Z,9.83
2022-11-10T17:29:44.124Z,9.87
2022-11-10T17:32:58.021Z,9.88
2022-11-10T17:36:02.490Z,9.91
2022-11-10T17:38:47.839Z,9.90
2022-11-10T17:41:34.105Z,9.88
2022-11-10T17:44:19.636Z,9.85
2022-11-10T17:47:05.117Z,9.84
2022-11-10T17:49:52.044Z,9.85
2022-11-10T17:52:37.345Z,9.85
2022-11-10T17:55:34.005Z,9.83
2022-11-10T17:58:19.967Z,9.87
2022-11-10T18:01:18.692Z,9.88
2022-11-10T18:04:04.228Z,9.87
2022-11-10T18:06:49.894Z,9.89
2022-11-10T18:09:35.046Z,9.89
2022-11-10T18:12:25.304Z,9.91
2022-11-10T18:15:15.015Z,9.99
2022-11-10T18:18:01.277Z,9.97
2022-11-10T18:20:46.961Z,9.95
2022-11-10T18:23:32.886Z,9.94
2022-11-10T18:26:21.038Z,9.89
2022-11-10T18:29:06.851Z,9.91
2022-11-10T18:31:52.166Z,9.93
2022-11-10T18:34:37.611Z,9.95
2022-11-10T18:37:23.088Z,9.93
2022-11-10T18:40:09.023Z,9.91
2022-11-10T18:43:06.157Z,9.92
2022-11-10T18:45:54.692Z,9.94
2022-11-10T18:48:41.246Z,9.95
2022-11-10T18:51:26.663Z,9.97
2022-11-10T18:54:12.179Z,9.94
2022-11-10T18:56:57.784Z,9.95
2022-11-10T18:59:43.446Z,9.93
2022-11-10T19:02:28.716Z,9.89
2022-11-10T19:05:14.294Z,9.88
2022-11-10T19:07:59.894Z,9.89
2022-11-10T19:10:45.230Z,9.86
2022-11-10T19:13:30.670Z,9.85
2022-11-10T19:16:18.179Z,9.83
2022-11-10T19:19:03.550Z,9.84
2022-11-10T19:21:48.736Z,9.86
2022-11-10T19:24:53.882Z,9.83
2022-11-10T19:27:39.231Z,9.85
2022-11-10T19:30:25.835Z,9.83
2022-11-10T19:33:10.788Z,9.81
2022-11-10T19:35:56.809Z,9.82
2022-11-10T19:38:42.988Z,9.79
2022-11-10T19:41:30.885Z,9.80
2022-11-10T19:44:16.246Z,9.79
2022-11-10T19:47:01.573Z,9.78
2022-11-10T19:49:46.963Z,9.74
2022-11-10T19:52:32.162Z,9.73
2022-11-10T19:55:17.916Z,9.77
2022-11-10T19:58:06.082Z,9.82
2022-11-10T20:00:51.339Z,9.80
2022-11-10T20:03:37.226Z,9.78
2022-11-10T20:06:23.547Z,9.76
2022-11-10T20:09:08.973Z,9.77
2022-11-10T20:11:54.427Z,9.79
2022-11-10T20:14:39.926Z,9.79
2022-11-10T20:17:25.241Z,9.78
2022-11-10T20:20:10.846Z,9.80
2022-11-10T20:23:00.784Z,9.78
2022-11-10T20:25:46.175Z,9.77
2022-11-10T20:28:33.755Z,9.73
2022-11-10T20:31:24.791Z,9.73
2022-11-10T20:34:09.856Z,9.70
2022-11-10T20:36:55.576Z,9.70
2022-11-10T20:39:40.764Z,9.69
2022-11-10T20:42:26.091Z,9.66
2022-11-10T20:45:11.818Z,9.64
2022-11-10T20:47:57.877Z,9.63
2022-11-10T20:50:43.320Z,9.65
2022-11-10T20:53:29.626Z,9.62
2022-11-10T20:56:15.881Z,9.62
2022-11-10T20:59:01.233Z,9.60
2022-11-10T21:01:46.623Z,9.60
2022-11-10T21:04:32.507Z,9.57
2022-11-10T21:07:18.014Z,9.59
2022-11-10T21:10:03.983Z,9.58
2022-11-10T21:12:49.458Z,9.55
2022-11-10T21:15:38.237Z,9.52
2022-11-10T21:18:26.489Z,9.49
2022-11-10T21:21:21.336Z,9.50
2022-11-10T21:24:08.195Z,9.52
2022-11-10T21:26:54.216Z,9.52
2022-11-10T21:29:40.022Z,9.50
2022-11-10T21:32:25.448Z,9.47
2022-11-10T21:35:10.902Z,9.42
2022-11-10T21:37:56.279Z,9.40
2022-11-10T21:40:41.732Z,9.42
2022-11-10T21:43:27.044Z,9.43
2022-11-10T21:46:12.894Z,9.42
2022-11-10T21:49:03.116Z,9.43
2022-11-10T21:51:52.526Z,9.46
2022-11-10T21:54:38.337Z,9.46
2022-11-10T21:57:24.576Z,9.42
2022-11-10T22:00:11.649Z,9.39
2022-11-10T22:03:01.432Z,9.40
2022-11-10T22:05:47.241Z,9.42
2022-11-10T22:08:33.696Z,9.39
2022-11-10T22:11:39.284Z,9.37
2022-11-10T22:14:43.127Z,9.36
2022-11-10T22:17:46.824Z,9.34
2022-11-10T22:20:31.943Z,9.33
2022-11-10T22:23:17.212Z,9.33
2022-11-10T22:26:02.490Z,9.36
2022-11-10T22:28:48.320Z,9.39
2022-11-10T22:31:33.963Z,9.39
2022-11-10T22:34:20.007Z,9.39
2022-11-10T22:37:05.476Z,9.44
2022-11-10T22:40:09.525Z,9.45
2022-11-10T22:43:13.376Z,9.43
2022-11-10T22:45:58.959Z,9.42
2022-11-10T22:48:44.406Z,9.43
2022-11-10T22:51:31.212Z,9.43
2022-11-10T22:54:22.907Z,9.43
2022-11-10T22:57:08.208Z,9.43
2022-11-10T22:59:54.063Z,9.43
2022-11-10T23:02:40.124Z,9.42
2022-11-10T23:05:25.195Z,9.42
2022-11-10T23:08:11.516Z,9.42
2022-11-10T23:11:04.505Z,9.41
2022-11-10T23:13:50.710Z,9.42
2022-11-10T23:16:36.094Z,9.41
2022-11-10T23:19:21.534Z,9.44
2022-11-10T23:22:06.729Z,9.47
2022-11-10T23:24:56.917Z,9.46
2022-11-10T23:27:42.922Z,9.46
2022-11-10T23:30:28.158Z,9.43
2022-11-10T23:33:13.502Z,9.44
2022-11-10T23:35:59.467Z,9.46
2022-11-10T23:38:45.618Z,9.42
2022-11-10T23:41:31.297Z,9.44
2022-11-10T23:44:16.609Z,9.45
2022-11-10T23:47:01.951Z,9.44
2022-11-10T23:49:47.510Z,9.37
2022-11-10T23:52:33.070Z,9.35
2022-11-10T23:55:18.606Z,9.34
2022-11-10T23:58:04.422Z,9.34
